Alma, CO (80420)

4:16 AM MST on December 27, 2014 (GMT -0700)
Sun Mountain Subdivision | Change Station
CLOSE
Current Station
Personal Weather Station
Location: Fairplay, CO
Elevation: 11010 ft
Nearby Weather Stations

Elev 11010 ft 39.23 °N, 106.09 °W | Updated 13 minutes ago

Mostly Cloudy
Mostly Cloudy
1.0 °F
Feels Like 1 °F
N
0.0
Wind Variable Wind from WNW

Today
High -- | Low -- °F
--% Chance of Precip.
Yesterday
High -- | Low -- °F
Precip. -- in
7:22 AM 4:47 PM
Waxing Crescent, 35% visible
Pressure 29.84 in
Visibility 10.0 miles
Clouds Scattered Clouds 900 ft
Scattered Clouds 1400 ft
Overcast 2300 ft
Windchill 1 °F
Dew Point -6 °F
Humidity 73%
Rainfall 0.00 in
Snow Depth Not available.
UV 0 out of 12
Pollen .10 out of 12
Air Quality Not available.
Flu Activity Not available.
METAR KCCU 271056Z AUTO 26012KT 10SM SCT009 SCT014 OVC023 M18/M22 A2984 RMK AO2

More Conditions Fewer Conditions

Pressure 29.84 in
Visibility 10.0 miles
Clouds Scattered Clouds 900 ft
Scattered Clouds 1400 ft
Overcast 2300 ft
Windchill 1 °F
Dew Point -6 °F
Humidity 73%
Rainfall 0.00 in
Snow Depth Not available.
UV 0 out of 12
Pollen .10 out of 12
Air Quality Not available.
Flu Activity Not available.
METAR KCCU 271056Z AUTO 26012KT 10SM SCT009 SCT014 OVC023 M18/M22 A2984 RMK AO2

More Conditions Fewer Conditions

10-Day Weather Forecast

Almanac

Astronomy

Dec. 27, 2014 Rise Set
Actual Time
Civil Twilight
Nautical Twilight
Astronomical Twilight
Moon
Length of Visible Light
Length of Day
Tomorrow will be .
, % of the Moon is Illuminated

Today's Extremes

State Highs State Lows

Community

WunderPhotos

Upload Photos

1,780,879 photos uploaded!

WunderBlogs® & News

Nearby

Air Quality

  Air Quality AQ Index Pollutant
Not available.

Snow Depth

Station Depth Elevation

Earthquake Activity

City Distance Mag. Time & Date
Minimum magnitude displayed is 2.5.

Coastal Water Temperatures

Place Temperature

Nearby Weather Stations